Kezdőlap
METAR-TAF:

METAR-TAF

Repülőterek :

Vardø, Norvégia

földrajzi szélesség: 70-21N, földrajzi hosszúság: 031-03E, magasság: 12 m

Jelenlegi meteorológiai megfigyelések

A jelentés 8 órával és 8 perccel ezelõtt készült, 21:20 UTC
Észak-északnyugati szél 24 kt
Hőmérséklet -1°C
Páratartalom 80%
Légköri nyomás 975 hPa
Látótávolság 10 km, vagy több
Kevés felhő 1500 lábon
Szórványos felhőzet 4800 lábon
alacsony hófúvás, Záporok a közelben

METAR: ENSS 082120Z 33024KT 9999 DRSN VCSH FEW015 SCT048 M01/M04 Q0975 RMK WIND 500FT 32027KT

Idő: 06:28 (05:28 UTC)


TAF: hiányzik

Meteorológiai megfigyelések és előrejelzések több, mint 4000 repülőtéren (METAR és TAF jelentéseket).

A térképen piros és sárga pontok jelzik az elérhető meteorológiai állomásokat.

Mozgassa az egeret a pont fölött, hogy megjelenjen az állomás neve.

Azután kattintson az időjárási megfigyelések és előrejelzések megtekintéséhez.

A térkép megváltoztatása: kattintson a fekete keresztel jelölt zöld gombra ráközelítéshez, a vonallal jelölt zöld gombra távolításhoz, vagy a zöld nyilakra a szomszédos térképek eléréséhez.


METAR-TAF: